sensor_id;sensor_type;location;lat;lon;timestamp;P1;durP1;ratioP1;P2;durP2;ratioP2
1054;SDS011;516;51.482;7.120;2022-08-19T00:02:27;16.10;;;14.60;;
1054;SDS011;516;51.482;7.120;2022-08-19T00:08:15;16.00;;;14.40;;
1054;SDS011;516;51.482;7.120;2022-08-19T00:14:18;16.63;;;15.17;;
1054;SDS011;516;51.482;7.120;2022-08-19T00:23:15;16.20;;;14.90;;
1054;SDS011;516;51.482;7.120;2022-08-19T00:29:03;18.43;;;14.30;;
1054;SDS011;516;51.482;7.120;2022-08-19T00:34:53;15.60;;;14.30;;
1054;SDS011;516;51.482;7.120;2022-08-19T00:40:42;16.93;;;15.40;;
1054;SDS011;516;51.482;7.120;2022-08-19T00:46:33;18.70;;;17.10;;
1054;SDS011;516;51.482;7.120;2022-08-19T00:52:32;18.10;;;16.00;;
1054;SDS011;516;51.482;7.120;2022-08-19T00:58:24;17.20;;;15.77;;
1054;SDS011;516;51.482;7.120;2022-08-19T01:04:17;18.43;;;16.83;;
1054;SDS011;516;51.482;7.120;2022-08-19T01:10:06;19.30;;;17.23;;
1054;SDS011;516;51.482;7.120;2022-08-19T01:15:58;18.43;;;16.50;;
1054;SDS011;516;51.482;7.120;2022-08-19T01:21:52;20.03;;;18.20;;
1054;SDS011;516;51.482;7.120;2022-08-19T01:27:46;19.13;;;17.13;;
1054;SDS011;516;51.482;7.120;2022-08-19T01:33:35;20.40;;;16.67;;
1054;SDS011;516;51.482;7.120;2022-08-19T01:39:24;18.23;;;16.43;;
1054;SDS011;516;51.482;7.120;2022-08-19T01:45:12;17.60;;;16.20;;
1054;SDS011;516;51.482;7.120;2022-08-19T01:51:00;19.13;;;17.30;;
1054;SDS011;516;51.482;7.120;2022-08-19T01:56:47;17.10;;;15.40;;
1054;SDS011;516;51.482;7.120;2022-08-19T02:02:36;18.30;;;16.80;;
1054;SDS011;516;51.482;7.120;2022-08-19T02:08:23;19.17;;;17.40;;
1054;SDS011;516;51.482;7.120;2022-08-19T02:14:14;20.57;;;17.23;;
1054;SDS011;516;51.482;7.120;2022-08-19T02:20:02;19.37;;;17.70;;
1054;SDS011;516;51.482;7.120;2022-08-19T02:25:51;19.40;;;17.50;;
1054;SDS011;516;51.482;7.120;2022-08-19T02:31:39;17.87;;;16.20;;
1054;SDS011;516;51.482;7.120;2022-08-19T02:37:28;19.17;;;17.37;;
1054;SDS011;516;51.482;7.120;2022-08-19T02:43:35;20.40;;;18.70;;
1054;SDS011;516;51.482;7.120;2022-08-19T02:49:23;18.50;;;16.67;;
1054;SDS011;516;51.482;7.120;2022-08-19T02:55:11;19.03;;;17.37;;
1054;SDS011;516;51.482;7.120;2022-08-19T03:00:59;22.60;;;20.40;;
1054;SDS011;516;51.482;7.120;2022-08-19T03:06:47;19.63;;;17.60;;
1054;SDS011;516;51.482;7.120;2022-08-19T03:16:04;20.87;;;18.90;;
1054;SDS011;516;51.482;7.120;2022-08-19T03:21:52;21.07;;;18.90;;
1054;SDS011;516;51.482;7.120;2022-08-19T03:27:40;20.33;;;18.60;;
1054;SDS011;516;51.482;7.120;2022-08-19T03:33:29;21.40;;;19.40;;
1054;SDS011;516;51.482;7.120;2022-08-19T03:39:17;21.93;;;19.80;;
1054;SDS011;516;51.482;7.120;2022-08-19T03:45:05;20.87;;;18.87;;
1054;SDS011;516;51.482;7.120;2022-08-19T03:50:54;19.50;;;17.63;;
1054;SDS011;516;51.482;7.120;2022-08-19T03:56:43;21.20;;;19.30;;
1054;SDS011;516;51.482;7.120;2022-08-19T04:02:32;19.13;;;17.10;;
1054;SDS011;516;51.482;7.120;2022-08-19T04:08:19;20.50;;;18.23;;
1054;SDS011;516;51.482;7.120;2022-08-19T04:13:57;22.10;;;20.00;;
1054;SDS011;516;51.482;7.120;2022-08-19T04:19:46;21.83;;;19.53;;
1054;SDS011;516;51.482;7.120;2022-08-19T04:25:35;25.37;;;22.80;;
1054;SDS011;516;51.482;7.120;2022-08-19T04:31:28;23.53;;;21.00;;
1054;SDS011;516;51.482;7.120;2022-08-19T04:37:17;25.13;;;22.13;;
1054;SDS011;516;51.482;7.120;2022-08-19T04:43:05;21.33;;;19.20;;
1054;SDS011;516;51.482;7.120;2022-08-19T04:48:53;23.90;;;21.57;;
1054;SDS011;516;51.482;7.120;2022-08-19T04:54:40;29.17;;;26.20;;
1054;SDS011;516;51.482;7.120;2022-08-19T05:00:28;30.93;;;28.03;;
1054;SDS011;516;51.482;7.120;2022-08-19T05:06:17;26.13;;;20.33;;
1054;SDS011;516;51.482;7.120;2022-08-19T05:21:50;20.20;;;18.23;;
1054;SDS011;516;51.482;7.120;2022-08-19T05:27:57;22.57;;;20.40;;
1054;SDS011;516;51.482;7.120;2022-08-19T05:33:46;22.70;;;20.03;;
1054;SDS011;516;51.482;7.120;2022-08-19T05:39:35;21.23;;;19.03;;
1054;SDS011;516;51.482;7.120;2022-08-19T05:45:24;20.13;;;18.03;;
1054;SDS011;516;51.482;7.120;2022-08-19T05:51:12;19.67;;;17.77;;
1054;SDS011;516;51.482;7.120;2022-08-19T05:57:01;22.83;;;20.33;;
1054;SDS011;516;51.482;7.120;2022-08-19T06:02:49;26.83;;;19.73;;
1054;SDS011;516;51.482;7.120;2022-08-19T06:08:37;23.40;;;21.07;;
1054;SDS011;516;51.482;7.120;2022-08-19T06:13:59;22.83;;;20.33;;
1054;SDS011;516;51.482;7.120;2022-08-19T06:19:49;23.40;;;21.07;;
1054;SDS011;516;51.482;7.120;2022-08-19T06:25:37;22.30;;;20.10;;
1054;SDS011;516;51.482;7.120;2022-08-19T06:31:27;22.70;;;20.47;;
1054;SDS011;516;51.482;7.120;2022-08-19T06:37:16;22.20;;;20.10;;
1054;SDS011;516;51.482;7.120;2022-08-19T06:43:04;27.27;;;22.63;;
1054;SDS011;516;51.482;7.120;2022-08-19T06:48:51;26.80;;;24.03;;
1054;SDS011;516;51.482;7.120;2022-08-19T06:54:40;28.10;;;24.17;;
1054;SDS011;516;51.482;7.120;2022-08-19T07:00:29;29.63;;;26.50;;
1054;SDS011;516;51.482;7.120;2022-08-19T07:06:17;27.67;;;24.77;;
1054;SDS011;516;51.482;7.120;2022-08-19T07:21:54;31.23;;;26.53;;
1054;SDS011;516;51.482;7.120;2022-08-19T07:27:42;27.17;;;24.37;;
1054;SDS011;516;51.482;7.120;2022-08-19T07:33:31;26.33;;;22.93;;
1054;SDS011;516;51.482;7.120;2022-08-19T07:39:23;26.73;;;24.10;;
1054;SDS011;516;51.482;7.120;2022-08-19T07:45:15;26.90;;;24.03;;
1054;SDS011;516;51.482;7.120;2022-08-19T07:51:04;27.17;;;24.77;;
1054;SDS011;516;51.482;7.120;2022-08-19T07:56:55;27.40;;;24.60;;
1054;SDS011;516;51.482;7.120;2022-08-19T08:02:44;32.20;;;28.90;;
1054;SDS011;516;51.482;7.120;2022-08-19T08:08:31;32.00;;;28.90;;
1054;SDS011;516;51.482;7.120;2022-08-19T08:11:32;32.67;;;29.37;;
1054;SDS011;516;51.482;7.120;2022-08-19T08:13:58;30.90;;;26.00;;
1054;SDS011;516;51.482;7.120;2022-08-19T08:19:46;36.87;;;32.87;;
1054;SDS011;516;51.482;7.120;2022-08-19T08:25:35;34.80;;;31.30;;
1054;SDS011;516;51.482;7.120;2022-08-19T08:31:24;39.87;;;33.83;;
1054;SDS011;516;51.482;7.120;2022-08-19T08:37:12;40.20;;;36.33;;
1054;SDS011;516;51.482;7.120;2022-08-19T08:54:46;40.57;;;36.47;;
1054;SDS011;516;51.482;7.120;2022-08-19T09:00:37;41.40;;;37.47;;
1054;SDS011;516;51.482;7.120;2022-08-19T09:16:19;40.17;;;36.37;;
1054;SDS011;516;51.482;7.120;2022-08-19T09:22:11;40.10;;;36.50;;
1054;SDS011;516;51.482;7.120;2022-08-19T09:27:58;38.50;;;34.70;;
1054;SDS011;516;51.482;7.120;2022-08-19T09:33:50;37.13;;;33.80;;
1054;SDS011;516;51.482;7.120;2022-08-19T09:39:39;32.17;;;28.97;;
1054;SDS011;516;51.482;7.120;2022-08-19T09:45:30;29.37;;;26.43;;
1054;SDS011;516;51.482;7.120;2022-08-19T09:51:24;27.93;;;24.67;;
1054;SDS011;516;51.482;7.120;2022-08-19T09:57:13;28.80;;;26.17;;
1054;SDS011;516;51.482;7.120;2022-08-19T10:03:04;24.03;;;21.73;;
1054;SDS011;516;51.482;7.120;2022-08-19T10:08:52;21.90;;;17.67;;
1054;SDS011;516;51.482;7.120;2022-08-19T10:18:01;22.90;;;20.83;;
1054;SDS011;516;51.482;7.120;2022-08-19T10:23:51;20.53;;;18.83;;
1054;SDS011;516;51.482;7.120;2022-08-19T10:29:41;25.80;;;23.67;;
1054;SDS011;516;51.482;7.120;2022-08-19T10:35:29;24.43;;;22.53;;
1054;SDS011;516;51.482;7.120;2022-08-19T10:41:18;25.10;;;23.20;;
1054;SDS011;516;51.482;7.120;2022-08-19T10:47:09;24.17;;;22.10;;
1054;SDS011;516;51.482;7.120;2022-08-19T10:53:02;25.07;;;23.10;;
1054;SDS011;516;51.482;7.120;2022-08-19T10:58:51;28.70;;;25.87;;
1054;SDS011;516;51.482;7.120;2022-08-19T11:04:39;29.17;;;26.57;;
1054;SDS011;516;51.482;7.120;2022-08-19T11:10:27;28.57;;;25.47;;
1054;SDS011;516;51.482;7.120;2022-08-19T11:16:03;24.97;;;22.80;;
1054;SDS011;516;51.482;7.120;2022-08-19T11:21:54;26.93;;;24.73;;
1054;SDS011;516;51.482;7.120;2022-08-19T11:27:42;25.70;;;23.60;;
1054;SDS011;516;51.482;7.120;2022-08-19T11:33:31;24.27;;;22.10;;
1054;SDS011;516;51.482;7.120;2022-08-19T11:39:20;25.17;;;22.97;;
1054;SDS011;516;51.482;7.120;2022-08-19T11:45:09;23.73;;;21.87;;
1054;SDS011;516;51.482;7.120;2022-08-19T11:50:57;24.37;;;21.37;;
1054;SDS011;516;51.482;7.120;2022-08-19T11:56:45;19.53;;;18.03;;
1054;SDS011;516;51.482;7.120;2022-08-19T12:02:35;21.37;;;19.77;;
1054;SDS011;516;51.482;7.120;2022-08-19T12:08:23;21.03;;;19.10;;
1054;SDS011;516;51.482;7.120;2022-08-19T12:23:56;14.33;;;13.23;;
1054;SDS011;516;51.482;7.120;2022-08-19T12:29:45;13.90;;;12.90;;
1054;SDS011;516;51.482;7.120;2022-08-19T12:35:33;12.63;;;11.83;;
1054;SDS011;516;51.482;7.120;2022-08-19T12:41:21;12.83;;;11.90;;
1054;SDS011;516;51.482;7.120;2022-08-19T12:47:09;13.20;;;12.10;;
1054;SDS011;516;51.482;7.120;2022-08-19T12:52:59;14.30;;;12.90;;
1054;SDS011;516;51.482;7.120;2022-08-19T12:58:48;12.47;;;11.60;;
1054;SDS011;516;51.482;7.120;2022-08-19T13:04:36;13.50;;;12.60;;
1054;SDS011;516;51.482;7.120;2022-08-19T13:10:30;13.50;;;12.60;;
1054;SDS011;516;51.482;7.120;2022-08-19T13:16:00;12.47;;;11.67;;
1054;SDS011;516;51.482;7.120;2022-08-19T13:21:50;12.23;;;11.40;;
1054;SDS011;516;51.482;7.120;2022-08-19T13:27:39;13.33;;;12.33;;
1054;SDS011;516;51.482;7.120;2022-08-19T13:33:27;11.10;;;10.10;;
1054;SDS011;516;51.482;7.120;2022-08-19T13:39:16;13.00;;;11.80;;
1054;SDS011;516;51.482;7.120;2022-08-19T13:45:04;11.93;;;11.03;;
1054;SDS011;516;51.482;7.120;2022-08-19T13:50:54;13.43;;;12.33;;
1054;SDS011;516;51.482;7.120;2022-08-19T13:56:42;11.97;;;11.03;;
1054;SDS011;516;51.482;7.120;2022-08-19T14:02:33;11.83;;;11.03;;
1054;SDS011;516;51.482;7.120;2022-08-19T14:08:21;9.67;;;8.87;;
1054;SDS011;516;51.482;7.120;2022-08-19T14:23:54;11.57;;;10.57;;
1054;SDS011;516;51.482;7.120;2022-08-19T14:29:42;12.47;;;9.60;;
1054;SDS011;516;51.482;7.120;2022-08-19T14:35:30;11.40;;;10.40;;
1054;SDS011;516;51.482;7.120;2022-08-19T14:41:23;12.17;;;11.20;;
1054;SDS011;516;51.482;7.120;2022-08-19T14:47:11;12.27;;;11.20;;
1054;SDS011;516;51.482;7.120;2022-08-19T14:53:00;11.70;;;10.70;;
1054;SDS011;516;51.482;7.120;2022-08-19T14:58:51;10.87;;;10.03;;
1054;SDS011;516;51.482;7.120;2022-08-19T15:04:39;11.80;;;10.90;;
1054;SDS011;516;51.482;7.120;2022-08-19T15:10:26;12.10;;;11.20;;
1054;SDS011;516;51.482;7.120;2022-08-19T15:15:56;12.70;;;11.53;;
1054;SDS011;516;51.482;7.120;2022-08-19T15:21:44;12.67;;;11.67;;
1054;SDS011;516;51.482;7.120;2022-08-19T15:27:32;12.30;;;11.37;;
1054;SDS011;516;51.482;7.120;2022-08-19T15:33:20;14.07;;;13.03;;
1054;SDS011;516;51.482;7.120;2022-08-19T15:39:07;18.87;;;13.67;;
1054;SDS011;516;51.482;7.120;2022-08-19T15:44:56;13.27;;;12.10;;
1054;SDS011;516;51.482;7.120;2022-08-19T15:50:44;14.23;;;12.80;;
1054;SDS011;516;51.482;7.120;2022-08-19T15:56:33;10.23;;;9.47;;
1054;SDS011;516;51.482;7.120;2022-08-19T16:02:39;12.03;;;10.83;;
1054;SDS011;516;51.482;7.120;2022-08-19T16:08:46;11.77;;;10.87;;
1054;SDS011;516;51.482;7.120;2022-08-19T16:18:01;8.73;;;8.13;;
1054;SDS011;516;51.482;7.120;2022-08-19T16:23:50;11.63;;;10.73;;
1054;SDS011;516;51.482;7.120;2022-08-19T16:29:38;11.10;;;10.30;;
1054;SDS011;516;51.482;7.120;2022-08-19T16:35:25;13.80;;;12.60;;
1054;SDS011;516;51.482;7.120;2022-08-19T16:41:13;11.97;;;10.97;;
1054;SDS011;516;51.482;7.120;2022-08-19T16:47:00;13.17;;;12.20;;
1054;SDS011;516;51.482;7.120;2022-08-19T16:52:48;14.80;;;13.40;;
1054;SDS011;516;51.482;7.120;2022-08-19T16:58:36;14.27;;;13.17;;
1054;SDS011;516;51.482;7.120;2022-08-19T17:04:24;13.90;;;12.80;;
1054;SDS011;516;51.482;7.120;2022-08-19T17:10:12;14.27;;;12.97;;
1054;SDS011;516;51.482;7.120;2022-08-19T17:15:59;16.67;;;15.10;;
1054;SDS011;516;51.482;7.120;2022-08-19T17:21:47;16.43;;;15.23;;
1054;SDS011;516;51.482;7.120;2022-08-19T17:27:35;26.40;;;16.90;;
1054;SDS011;516;51.482;7.120;2022-08-19T17:33:23;17.20;;;15.60;;
1054;SDS011;516;51.482;7.120;2022-08-19T17:39:13;16.63;;;14.57;;
1054;SDS011;516;51.482;7.120;2022-08-19T17:45:01;16.47;;;14.97;;
1054;SDS011;516;51.482;7.120;2022-08-19T17:50:49;17.90;;;16.10;;
1054;SDS011;516;51.482;7.120;2022-08-19T17:56:38;18.13;;;15.27;;
1054;SDS011;516;51.482;7.120;2022-08-19T18:02:26;19.10;;;17.20;;
1054;SDS011;516;51.482;7.120;2022-08-19T18:08:14;16.73;;;15.30;;
1054;SDS011;516;51.482;7.120;2022-08-19T18:23:55;15.00;;;13.80;;
1054;SDS011;516;51.482;7.120;2022-08-19T18:29:44;12.90;;;11.67;;
1054;SDS011;516;51.482;7.120;2022-08-19T18:35:32;12.37;;;11.20;;
1054;SDS011;516;51.482;7.120;2022-08-19T18:41:19;12.63;;;11.43;;
1054;SDS011;516;51.482;7.120;2022-08-19T18:47:26;12.80;;;11.57;;
1054;SDS011;516;51.482;7.120;2022-08-19T18:53:32;14.10;;;12.77;;
1054;SDS011;516;51.482;7.120;2022-08-19T18:59:25;17.33;;;14.87;;
1054;SDS011;516;51.482;7.120;2022-08-19T19:05:14;17.17;;;15.67;;
1054;SDS011;516;51.482;7.120;2022-08-19T19:11:02;17.13;;;15.57;;
1054;SDS011;516;51.482;7.120;2022-08-19T19:13:32;18.80;;;15.83;;
1054;SDS011;516;51.482;7.120;2022-08-19T19:15:59;19.03;;;17.13;;
1054;SDS011;516;51.482;7.120;2022-08-19T19:21:47;18.50;;;15.30;;
1054;SDS011;516;51.482;7.120;2022-08-19T19:27:36;19.23;;;17.23;;
1054;SDS011;516;51.482;7.120;2022-08-19T19:33:26;16.30;;;14.67;;
1054;SDS011;516;51.482;7.120;2022-08-19T19:39:14;17.63;;;15.73;;
1054;SDS011;516;51.482;7.120;2022-08-19T19:45:03;17.00;;;13.57;;
1054;SDS011;516;51.482;7.120;2022-08-19T19:50:51;13.80;;;12.50;;
1054;SDS011;516;51.482;7.120;2022-08-19T19:56:40;15.20;;;13.60;;
1054;SDS011;516;51.482;7.120;2022-08-19T20:02:29;13.57;;;12.30;;
1054;SDS011;516;51.482;7.120;2022-08-19T20:08:16;14.00;;;11.53;;
1054;SDS011;516;51.482;7.120;2022-08-19T20:18:06;10.10;;;9.20;;
1054;SDS011;516;51.482;7.120;2022-08-19T20:23:54;8.97;;;7.67;;
1054;SDS011;516;51.482;7.120;2022-08-19T20:29:42;9.20;;;8.40;;
1054;SDS011;516;51.482;7.120;2022-08-19T20:35:30;9.60;;;8.70;;
1054;SDS011;516;51.482;7.120;2022-08-19T20:41:19;7.90;;;7.20;;
1054;SDS011;516;51.482;7.120;2022-08-19T20:47:07;9.23;;;8.43;;
1054;SDS011;516;51.482;7.120;2022-08-19T20:52:55;9.77;;;8.53;;
1054;SDS011;516;51.482;7.120;2022-08-19T20:58:43;8.57;;;7.90;;
1054;SDS011;516;51.482;7.120;2022-08-19T21:04:31;8.47;;;7.63;;
1054;SDS011;516;51.482;7.120;2022-08-19T21:10:19;8.50;;;7.80;;
1054;SDS011;516;51.482;7.120;2022-08-19T21:16:18;9.67;;;8.77;;
1054;SDS011;516;51.482;7.120;2022-08-19T21:22:05;9.23;;;8.53;;
1054;SDS011;516;51.482;7.120;2022-08-19T21:27:53;10.70;;;9.60;;
1054;SDS011;516;51.482;7.120;2022-08-19T21:33:40;8.90;;;8.00;;
1054;SDS011;516;51.482;7.120;2022-08-19T21:39:27;9.20;;;8.40;;
1054;SDS011;516;51.482;7.120;2022-08-19T21:45:15;10.20;;;9.13;;
1054;SDS011;516;51.482;7.120;2022-08-19T21:51:07;11.17;;;10.17;;
1054;SDS011;516;51.482;7.120;2022-08-19T21:56:55;11.33;;;10.23;;
1054;SDS011;516;51.482;7.120;2022-08-19T22:02:44;13.07;;;11.83;;
1054;SDS011;516;51.482;7.120;2022-08-19T22:08:32;12.93;;;11.83;;
1054;SDS011;516;51.482;7.120;2022-08-19T22:23:54;12.10;;;11.00;;
1054;SDS011;516;51.482;7.120;2022-08-19T22:29:42;13.83;;;12.53;;
1054;SDS011;516;51.482;7.120;2022-08-19T22:35:31;15.40;;;13.87;;
1054;SDS011;516;51.482;7.120;2022-08-19T22:41:21;19.00;;;14.40;;
1054;SDS011;516;51.482;7.120;2022-08-19T22:47:09;25.10;;;20.93;;
1054;SDS011;516;51.482;7.120;2022-08-19T22:52:57;29.93;;;23.50;;
1054;SDS011;516;51.482;7.120;2022-08-19T22:58:46;25.33;;;22.70;;
1054;SDS011;516;51.482;7.120;2022-08-19T23:04:36;24.87;;;22.27;;
1054;SDS011;516;51.482;7.120;2022-08-19T23:10:24;29.60;;;19.80;;
1054;SDS011;516;51.482;7.120;2022-08-19T23:16:03;27.23;;;19.00;;
1054;SDS011;516;51.482;7.120;2022-08-19T23:21:51;26.37;;;19.63;;
1054;SDS011;516;51.482;7.120;2022-08-19T23:27:39;27.50;;;19.10;;
1054;SDS011;516;51.482;7.120;2022-08-19T23:33:46;34.40;;;20.67;;
1054;SDS011;516;51.482;7.120;2022-08-19T23:39:36;34.03;;;22.77;;
1054;SDS011;516;51.482;7.120;2022-08-19T23:45:24;36.77;;;23.00;;
1054;SDS011;516;51.482;7.120;2022-08-19T23:51:14;37.97;;;25.00;;
1054;SDS011;516;51.482;7.120;2022-08-19T23:57:03;36.93;;;24.43;;
